Time;durP1;ratioP1;P1;durP2;ratioP2;P2;SDS_P1;SDS_P2;PMS_P1;PMS_P2;Temp;Humidity;BMP_temperature;BMP_pressure;BME280_temperature;BME280_humidity;BME280_pressure;Samples;Min_cycle;Max_cycle;Signal;HPM_P1;HPM_P2
2021/11/08 00:01:10;;;;;;;11.30;2.97;;;;;;;;;;4950875;28;20179;-71
2021/11/08 00:03:38;;;;;;;12.27;2.97;;;;;;;;;;4953680;28;20652;-71
2021/11/08 00:06:05;;;;;;;14.20;2.87;;;;;;;;;;4949493;28;20959;-72
2021/11/08 00:08:31;;;;;;;9.80;2.60;;;;;;;;;;4954656;28;20513;-72
2021/11/08 00:10:56;;;;;;;6.93;2.10;;;;;;;;;;4953599;28;20438;-71
2021/11/08 00:13:22;;;;;;;11.97;2.53;;;;;;;;;;4950852;28;20213;-72
2021/11/08 00:18:26;;;;;;;9.67;2.10;;;;;;;;;;4951209;28;20689;-72
2021/11/08 00:20:53;;;;;;;7.63;2.30;;;;;;;;;;4952746;28;20930;-72
2021/11/08 00:23:19;;;;;;;5.50;1.60;;;;;;;;;;4953000;28;20431;-72
2021/11/08 00:25:44;;;;;;;10.67;2.40;;;;;;;;;;4948988;28;20497;-72
2021/11/08 00:28:10;;;;;;;5.17;2.10;;;;;;;;;;4951151;28;20179;-72
2021/11/08 00:30:36;;;;;;;6.10;1.90;;;;;;;;;;4952380;28;20240;-72
2021/11/08 00:33:03;;;;;;;8.37;2.40;;;;;;;;;;4951728;28;20422;-72
2021/11/08 00:35:28;;;;;;;8.40;2.07;;;;;;;;;;4950330;28;20532;-72
2021/11/08 00:37:53;;;;;;;7.90;1.90;;;;;;;;;;4949551;28;20914;-72
2021/11/08 00:40:19;;;;;;;12.63;2.77;;;;;;;;;;4948391;28;20233;-72
2021/11/08 00:42:44;;;;;;;10.80;2.30;;;;;;;;;;4954258;28;20549;-72
2021/11/08 00:45:11;;;;;;;6.10;1.97;;;;;;;;;;4932013;28;20250;-72
2021/11/08 00:47:36;;;;;;;9.00;2.33;;;;;;;;;;4950160;28;20186;-72
2021/11/08 00:50:02;;;;;;;10.83;2.33;;;;;;;;;;4953097;28;20450;-72
2021/11/08 00:52:27;;;;;;;20.13;3.20;;;;;;;;;;4954974;28;20201;-72
2021/11/08 00:54:53;;;;;;;14.60;2.70;;;;;;;;;;4949648;28;20450;-71
2021/11/08 00:57:21;;;;;;;7.83;2.00;;;;;;;;;;4950063;28;20245;-70
2021/11/08 00:59:47;;;;;;;13.03;2.43;;;;;;;;;;4948954;28;20183;-72
2021/11/08 01:02:13;;;;;;;12.17;2.90;;;;;;;;;;4948943;28;20434;-72
2021/11/08 01:04:38;;;;;;;9.53;2.47;;;;;;;;;;4948267;28;20226;-71
2021/11/08 01:07:04;;;;;;;15.30;3.47;;;;;;;;;;4944300;28;20792;-72
2021/11/08 01:09:30;;;;;;;15.13;2.70;;;;;;;;;;4948314;28;20197;-71
2021/11/08 01:11:56;;;;;;;10.90;3.27;;;;;;;;;;4957101;28;20265;-71
2021/11/08 01:14:21;;;;;;;15.27;2.97;;;;;;;;;;4950130;28;20882;-72
2021/11/08 01:16:54;;;;;;;9.20;2.37;;;;;;;;;;4950979;28;20187;-71
2021/11/08 01:19:19;;;;;;;10.23;3.10;;;;;;;;;;4949473;28;20261;-72
2021/11/08 01:21:45;;;;;;;7.70;1.93;;;;;;;;;;4952768;28;20572;-71
2021/11/08 01:24:11;;;;;;;12.20;2.40;;;;;;;;;;4953486;28;20183;-72
2021/11/08 01:26:36;;;;;;;18.50;3.23;;;;;;;;;;4950754;28;20199;-71
2021/11/08 01:29:01;;;;;;;9.43;2.30;;;;;;;;;;4950731;28;20827;-71
2021/11/08 01:31:27;;;;;;;9.57;3.13;;;;;;;;;;4951684;28;20182;-71
2021/11/08 01:33:54;;;;;;;8.00;2.43;;;;;;;;;;4952022;28;20178;-71
2021/11/08 01:36:37;;;;;;;10.73;2.07;;;;;;;;;;4940485;28;20302;-72
2021/11/08 01:39:24;;;;;;;4.60;1.43;;;;;;;;;;4951349;28;20429;-72
2021/11/08 01:41:50;;;;;;;6.20;1.67;;;;;;;;;;4949072;28;20936;-72
2021/11/08 01:44:15;;;;;;;6.93;2.07;;;;;;;;;;4950020;28;20505;-71
2021/11/08 01:46:40;;;;;;;7.27;1.93;;;;;;;;;;4948877;28;20233;-71
2021/11/08 01:49:08;;;;;;;6.77;1.77;;;;;;;;;;4952290;28;20185;-71
2021/11/08 01:51:35;;;;;;;11.07;1.70;;;;;;;;;;4948775;28;20187;-71
2021/11/08 01:54:01;;;;;;;6.67;1.50;;;;;;;;;;4948621;28;20453;-71
2021/11/08 01:56:27;;;;;;;9.80;2.00;;;;;;;;;;4948649;28;20473;-72
2021/11/08 01:58:52;;;;;;;11.70;2.43;;;;;;;;;;4951651;28;20438;-71
2021/11/08 02:01:18;;;;;;;7.13;2.10;;;;;;;;;;4949093;28;20222;-72
2021/11/08 02:03:43;;;;;;;10.83;2.97;;;;;;;;;;4947644;28;20191;-71
2021/11/08 02:06:08;;;;;;;8.23;2.10;;;;;;;;;;4949043;28;20237;-71
2021/11/08 02:08:37;;;;;;;15.53;2.23;;;;;;;;;;4951090;28;20175;-71
2021/11/08 02:11:02;;;;;;;7.73;2.13;;;;;;;;;;4947877;28;20203;-72
2021/11/08 02:13:27;;;;;;;14.20;2.30;;;;;;;;;;4952773;28;20441;-72
2021/11/08 02:15:53;;;;;;;7.03;1.90;;;;;;;;;;4953211;28;20341;-72
2021/11/08 02:18:20;;;;;;;7.30;2.07;;;;;;;;;;4951738;28;20225;-71
2021/11/08 02:20:48;;;;;;;11.77;2.33;;;;;;;;;;4955113;28;20435;-71
2021/11/08 02:23:14;;;;;;;8.63;1.73;;;;;;;;;;4952831;28;20435;-71
2021/11/08 02:25:40;;;;;;;10.07;2.00;;;;;;;;;;4931363;28;20486;-71
2021/11/08 02:28:06;;;;;;;12.27;1.77;;;;;;;;;;4951914;28;20446;-71
2021/11/08 02:30:34;;;;;;;7.23;1.70;;;;;;;;;;4949835;28;20445;-72
2021/11/08 02:33:00;;;;;;;6.70;1.70;;;;;;;;;;4955358;28;20949;-71
2021/11/08 02:35:26;;;;;;;11.23;2.40;;;;;;;;;;4957403;28;20482;-71
2021/11/08 02:37:52;;;;;;;14.10;3.00;;;;;;;;;;4954831;28;20182;-71
2021/11/08 02:40:27;;;;;;;12.03;2.33;;;;;;;;;;4953060;28;20815;-71
2021/11/08 02:42:54;;;;;;;8.90;2.30;;;;;;;;;;4955187;28;20177;-71
2021/11/08 02:45:20;;;;;;;4.97;1.60;;;;;;;;;;4953664;28;20466;-71
2021/11/08 02:47:47;;;;;;;11.50;2.20;;;;;;;;;;4948496;28;20430;-71
2021/11/08 02:50:14;;;;;;;11.63;2.77;;;;;;;;;;4952080;28;20826;-71
2021/11/08 02:52:40;;;;;;;9.37;2.10;;;;;;;;;;4950790;28;20426;-71
2021/11/08 02:55:05;;;;;;;9.43;2.27;;;;;;;;;;4955395;28;20448;-71
2021/11/08 02:57:34;;;;;;;5.63;1.90;;;;;;;;;;4953623;28;20292;-71
2021/11/08 03:00:01;;;;;;;10.10;2.07;;;;;;;;;;4955979;28;20179;-72
2021/11/08 03:02:26;;;;;;;5.10;1.70;;;;;;;;;;4952086;28;20492;-72
2021/11/08 03:04:53;;;;;;;4.03;1.60;;;;;;;;;;4951778;28;20986;-71
2021/11/08 03:07:20;;;;;;;7.47;1.63;;;;;;;;;;4956488;28;20190;-71
2021/11/08 03:09:51;;;;;;;7.07;1.57;;;;;;;;;;4952013;28;20438;-71
2021/11/08 03:12:23;;;;;;;10.10;1.47;;;;;;;;;;4950159;28;20426;-72
2021/11/08 03:15:04;;;;;;;5.23;1.43;;;;;;;;;;4956336;28;20768;-72
2021/11/08 03:17:34;;;;;;;7.10;1.77;;;;;;;;;;4952341;28;20430;-72
2021/11/08 03:20:00;;;;;;;8.10;2.20;;;;;;;;;;4954192;28;20469;-72
2021/11/08 03:22:31;;;;;;;6.90;1.80;;;;;;;;;;4955238;28;20421;-72
2021/11/08 03:24:59;;;;;;;5.40;1.70;;;;;;;;;;4951492;28;20978;-71
2021/11/08 03:27:36;;;;;;;8.00;1.60;;;;;;;;;;4953730;28;20428;-72
2021/11/08 03:30:02;;;;;;;8.77;1.47;;;;;;;;;;4952209;28;20411;-72
2021/11/08 03:32:27;;;;;;;7.80;1.50;;;;;;;;;;4955825;28;20435;-72
2021/11/08 03:35:04;;;;;;;6.40;1.80;;;;;;;;;;4953238;28;21039;-72
2021/11/08 03:37:35;;;;;;;8.17;1.57;;;;;;;;;;4955633;28;20171;-73
2021/11/08 03:40:00;;;;;;;6.37;1.90;;;;;;;;;;4951565;28;20454;-72
2021/11/08 03:42:25;;;;;;;6.40;2.13;;;;;;;;;;4950958;28;20509;-72
2021/11/08 03:44:50;;;;;;;4.43;1.63;;;;;;;;;;4951536;28;20233;-72
2021/11/08 03:47:16;;;;;;;9.80;1.93;;;;;;;;;;4948820;28;20234;-72
2021/11/08 03:49:41;;;;;;;7.40;2.00;;;;;;;;;;4952156;28;20566;-71
2021/11/08 03:52:07;;;;;;;7.07;1.60;;;;;;;;;;4953397;28;20650;-70
2021/11/08 03:54:32;;;;;;;6.50;2.03;;;;;;;;;;4953704;28;20199;-71
2021/11/08 03:56:58;;;;;;;8.80;2.47;;;;;;;;;;4950741;28;20194;-71
2021/11/08 03:59:23;;;;;;;5.87;1.77;;;;;;;;;;4950502;28;20660;-71
2021/11/08 04:01:49;;;;;;;7.90;2.30;;;;;;;;;;4952381;28;26478;-71
2021/11/08 04:04:14;;;;;;;6.43;2.27;;;;;;;;;;4954627;28;20237;-70
2021/11/08 04:06:41;;;;;;;11.00;2.27;;;;;;;;;;4952890;28;20814;-71
2021/11/08 04:09:09;;;;;;;8.77;1.63;;;;;;;;;;4953291;28;20203;-71
2021/11/08 04:11:34;;;;;;;6.63;1.60;;;;;;;;;;4951132;28;20431;-72
2021/11/08 04:14:00;;;;;;;9.27;2.47;;;;;;;;;;4950101;28;23026;-71
2021/11/08 04:16:27;;;;;;;7.07;2.43;;;;;;;;;;4952156;28;20558;-71
2021/11/08 04:18:56;;;;;;;4.80;1.53;;;;;;;;;;4949806;28;20676;-70
2021/11/08 04:21:21;;;;;;;6.30;1.60;;;;;;;;;;4950472;28;20525;-71
2021/11/08 04:23:47;;;;;;;7.50;1.87;;;;;;;;;;4953082;28;20556;-71
2021/11/08 04:26:18;;;;;;;5.50;1.97;;;;;;;;;;4950656;28;20901;-71
2021/11/08 04:28:51;;;;;;;6.27;2.13;;;;;;;;;;4949372;28;20171;-71
2021/11/08 04:31:16;;;;;;;7.70;1.87;;;;;;;;;;4950846;28;20437;-71
2021/11/08 04:33:48;;;;;;;7.00;1.80;;;;;;;;;;4950800;28;20434;-71
2021/11/08 04:49:41;;;;;;;11.40;2.60;;;;;;;;;;4948962;28;21201;-71
2021/11/08 04:52:59;;;;;;;6.90;2.10;;;;;;;;;;4952956;28;20425;-71
2021/11/08 04:55:07;;;;;;;11.83;1.70;;;;;;;;;;4950623;28;20453;-70
2021/11/08 05:30:08;;;;;;;8.97;2.23;;;;;;;;;;4951331;28;20977;-71
2021/11/08 05:32:36;;;;;;;10.97;2.57;;;;;;;;;;4949397;28;20518;-72
2021/11/08 05:35:02;;;;;;;8.87;2.30;;;;;;;;;;4950851;28;20482;-71
2021/11/08 05:37:29;;;;;;;7.43;1.73;;;;;;;;;;4948198;28;20419;-72
2021/11/08 05:39:56;;;;;;;9.60;1.90;;;;;;;;;;4949630;28;20920;-71
2021/11/08 05:42:22;;;;;;;9.33;2.40;;;;;;;;;;4951314;28;20489;-71
2021/11/08 05:44:48;;;;;;;8.13;1.73;;;;;;;;;;4950996;28;20851;-71
2021/11/08 05:47:13;;;;;;;8.13;2.00;;;;;;;;;;4950924;28;20277;-71
2021/11/08 05:49:39;;;;;;;8.43;1.43;;;;;;;;;;4956416;28;20440;-71
2021/11/08 05:52:04;;;;;;;7.97;2.03;;;;;;;;;;4955937;28;20214;-71
2021/11/08 05:54:30;;;;;;;9.33;2.20;;;;;;;;;;4950950;28;20206;-71
2021/11/08 06:51:39;;;;;;;10.57;2.03;;;;;;;;;;4957726;28;20421;-70
2021/11/08 06:54:05;;;;;;;13.77;1.57;;;;;;;;;;4944383;28;20442;-71
2021/11/08 06:56:37;;;;;;;11.00;2.33;;;;;;;;;;4938017;28;20458;-71
2021/11/08 06:59:04;;;;;;;10.87;2.03;;;;;;;;;;4954996;28;20187;-71
2021/11/08 07:01:30;;;;;;;9.47;1.80;;;;;;;;;;4952671;28;20521;-71
2021/11/08 07:03:55;;;;;;;8.93;1.97;;;;;;;;;;4953081;28;20526;-72
2021/11/08 07:06:20;;;;;;;9.90;2.07;;;;;;;;;;4951698;28;21938;-71
2021/11/08 07:08:45;;;;;;;10.23;3.17;;;;;;;;;;4949147;28;20675;-71
2021/11/08 07:11:11;;;;;;;9.03;2.50;;;;;;;;;;4942648;28;20186;-73
2021/11/08 07:13:36;;;;;;;16.07;2.63;;;;;;;;;;4943360;28;20190;-73
2021/11/08 07:16:01;;;;;;;8.77;2.90;;;;;;;;;;4949167;28;20202;-72
2021/11/08 07:18:26;;;;;;;15.07;2.67;;;;;;;;;;4943250;28;20195;-71
2021/11/08 07:20:52;;;;;;;12.00;2.40;;;;;;;;;;4933197;28;20286;-71
2021/11/08 07:23:18;;;;;;;9.67;2.53;;;;;;;;;;4945899;28;20248;-71
2021/11/08 07:25:43;;;;;;;13.37;3.80;;;;;;;;;;4945798;28;20783;-72
2021/11/08 07:28:11;;;;;;;11.67;2.40;;;;;;;;;;4945082;28;20478;-72
2021/11/08 07:30:38;;;;;;;9.93;2.50;;;;;;;;;;4950966;28;20214;-71
2021/11/08 07:33:03;;;;;;;8.97;1.73;;;;;;;;;;4955490;28;20437;-72
2021/11/08 07:35:28;;;;;;;15.40;2.87;;;;;;;;;;4954962;28;20836;-72
2021/11/08 07:37:54;;;;;;;13.50;2.00;;;;;;;;;;4954899;28;20206;-72
2021/11/08 07:40:21;;;;;;;10.20;2.33;;;;;;;;;;4955615;28;21658;-72
2021/11/08 07:42:48;;;;;;;13.73;2.50;;;;;;;;;;4953157;28;20273;-72
2021/11/08 07:45:13;;;;;;;9.70;2.10;;;;;;;;;;4950085;28;20468;-72
2021/11/08 07:47:38;;;;;;;8.07;2.33;;;;;;;;;;4951669;28;20431;-72
2021/11/08 07:50:04;;;;;;;13.53;2.37;;;;;;;;;;4951020;28;20190;-71
2021/11/08 07:52:30;;;;;;;9.33;2.07;;;;;;;;;;4955252;28;20625;-72
2021/11/08 07:54:55;;;;;;;15.57;3.33;;;;;;;;;;4953117;28;20229;-72
2021/11/08 07:57:20;;;;;;;13.23;2.20;;;;;;;;;;4952548;28;20197;-72
2021/11/08 07:59:46;;;;;;;9.50;2.37;;;;;;;;;;4957326;28;20295;-71
2021/11/08 08:02:11;;;;;;;8.90;1.97;;;;;;;;;;4955535;28;20175;-72
2021/11/08 08:04:36;;;;;;;13.60;2.50;;;;;;;;;;4953320;28;20206;-72
2021/11/08 08:07:02;;;;;;;10.73;2.10;;;;;;;;;;4954877;28;20198;-72
2021/11/08 08:09:27;;;;;;;8.17;2.30;;;;;;;;;;4953595;28;20182;-72
2021/11/08 08:11:52;;;;;;;6.10;1.90;;;;;;;;;;4950696;28;20270;-73
2021/11/08 08:14:18;;;;;;;9.90;2.30;;;;;;;;;;4952650;28;20186;-72
2021/11/08 08:16:43;;;;;;;13.53;2.60;;;;;;;;;;4948027;28;20762;-72
2021/11/08 08:19:08;;;;;;;10.43;2.57;;;;;;;;;;4955174;28;20548;-72
2021/11/08 08:21:34;;;;;;;16.80;2.73;;;;;;;;;;4955999;28;20261;-73
2021/11/08 08:24:00;;;;;;;8.67;2.30;;;;;;;;;;4949699;28;20183;-73
2021/11/08 08:26:27;;;;;;;17.23;3.07;;;;;;;;;;4951371;28;20206;-72
2021/11/08 08:28:52;;;;;;;12.77;3.43;;;;;;;;;;4958181;28;20457;-73
2021/11/08 08:31:18;;;;;;;10.40;2.50;;;;;;;;;;4951230;28;20815;-73
2021/11/08 08:33:43;;;;;;;8.10;2.40;;;;;;;;;;4950481;28;20182;-73
2021/11/08 08:36:09;;;;;;;11.97;2.20;;;;;;;;;;4951598;28;20207;-73
2021/11/08 08:38:34;;;;;;;9.73;2.90;;;;;;;;;;4941040;28;20217;-75
2021/11/08 08:41:01;;;;;;;7.10;2.53;;;;;;;;;;4956778;28;20182;-72
2021/11/08 08:43:28;;;;;;;6.00;2.03;;;;;;;;;;4950331;28;20748;-73
2021/11/08 08:45:54;;;;;;;7.37;2.37;;;;;;;;;;4955425;28;20472;-72
2021/11/08 08:48:20;;;;;;;9.87;2.20;;;;;;;;;;4953466;28;20425;-72
2021/11/08 08:50:45;;;;;;;8.40;2.60;;;;;;;;;;4958035;28;20903;-72
2021/11/08 08:53:11;;;;;;;10.40;2.53;;;;;;;;;;4954116;28;20287;-71
2021/11/08 08:55:37;;;;;;;12.07;2.40;;;;;;;;;;4953548;28;20594;-72
2021/11/08 08:58:02;;;;;;;9.57;1.90;;;;;;;;;;4948535;28;20585;-72
2021/11/08 09:00:27;;;;;;;7.93;2.57;;;;;;;;;;4935853;28;20447;-73
2021/11/08 09:02:54;;;;;;;6.83;1.90;;;;;;;;;;4953049;28;20186;-72
2021/11/08 09:05:20;;;;;;;10.77;2.50;;;;;;;;;;4947362;28;21010;-71
2021/11/08 09:07:45;;;;;;;8.20;2.00;;;;;;;;;;4951406;28;20520;-72
2021/11/08 09:10:10;;;;;;;9.53;2.63;;;;;;;;;;4953915;28;20322;-71
2021/11/08 09:12:36;;;;;;;7.33;2.20;;;;;;;;;;4956524;28;20206;-73
2021/11/08 09:15:03;;;;;;;11.10;2.20;;;;;;;;;;4955335;28;20323;-72
2021/11/08 09:17:28;;;;;;;9.60;2.27;;;;;;;;;;4946309;28;20184;-72
2021/11/08 09:19:54;;;;;;;12.47;2.27;;;;;;;;;;4955153;28;20438;-73
2021/11/08 09:22:19;;;;;;;9.37;2.43;;;;;;;;;;4957314;28;20277;-72
2021/11/08 09:24:44;;;;;;;7.53;2.13;;;;;;;;;;4946384;28;20271;-72
2021/11/08 09:27:10;;;;;;;10.00;2.07;;;;;;;;;;4951089;28;20226;-72
2021/11/08 09:29:35;;;;;;;6.50;1.80;;;;;;;;;;4956519;28;20652;-72
2021/11/08 09:32:00;;;;;;;8.83;2.33;;;;;;;;;;4946485;28;20179;-72
2021/11/08 09:34:26;;;;;;;7.23;1.80;;;;;;;;;;4944522;28;20187;-73
2021/11/08 09:36:54;;;;;;;4.37;1.20;;;;;;;;;;4948093;28;20305;-72
2021/11/08 09:39:24;;;;;;;6.90;1.97;;;;;;;;;;4952119;28;20608;-73
2021/11/08 09:41:50;;;;;;;6.93;1.57;;;;;;;;;;4950218;28;20948;-73
2021/11/08 09:44:15;;;;;;;7.60;2.10;;;;;;;;;;4953975;28;20436;-71
2021/11/08 09:46:42;;;;;;;5.07;1.73;;;;;;;;;;4956100;28;20817;-73
2021/11/08 09:49:08;;;;;;;9.13;1.60;;;;;;;;;;4948763;28;20274;-72
2021/11/08 09:51:36;;;;;;;6.30;1.70;;;;;;;;;;4952305;28;20437;-73
2021/11/08 09:54:01;;;;;;;3.50;1.43;;;;;;;;;;4950711;28;20469;-73
2021/11/08 09:56:26;;;;;;;6.97;1.90;;;;;;;;;;4950765;28;21610;-72
2021/11/08 09:58:55;;;;;;;5.53;1.60;;;;;;;;;;4954827;28;20184;-72
2021/11/08 10:01:22;;;;;;;4.43;1.57;;;;;;;;;;4955270;28;20201;-72
2021/11/08 10:03:48;;;;;;;5.90;1.93;;;;;;;;;;4954268;28;20443;-73
2021/11/08 10:06:13;;;;;;;5.13;1.50;;;;;;;;;;4953621;28;20484;-72
2021/11/08 10:08:39;;;;;;;5.30;1.50;;;;;;;;;;4950692;28;20190;-72
2021/11/08 10:11:12;;;;;;;5.93;1.63;;;;;;;;;;4953628;28;20221;-72
2021/11/08 10:13:39;;;;;;;6.23;1.97;;;;;;;;;;4948249;28;20551;-72
2021/11/08 10:16:12;;;;;;;5.70;1.43;;;;;;;;;;4949470;28;20465;-72
2021/11/08 10:18:38;;;;;;;7.50;1.80;;;;;;;;;;4936240;28;20466;-72
2021/11/08 10:21:14;;;;;;;5.07;1.47;;;;;;;;;;4951766;28;20425;-72
2021/11/08 10:23:41;;;;;;;5.87;1.63;;;;;;;;;;4954475;28;20425;-72
2021/11/08 10:26:08;;;;;;;6.53;1.40;;;;;;;;;;4951798;28;20569;-72
2021/11/08 10:28:33;;;;;;;6.90;1.77;;;;;;;;;;4951793;28;20446;-73
2021/11/08 10:31:01;;;;;;;4.73;1.80;;;;;;;;;;4951257;28;20429;-72
2021/11/08 10:33:30;;;;;;;9.47;2.27;;;;;;;;;;4936306;28;20190;-72
2021/11/08 10:35:56;;;;;;;4.43;1.50;;;;;;;;;;4937904;28;20462;-72
2021/11/08 10:38:26;;;;;;;5.90;1.20;;;;;;;;;;4957126;28;21277;-72
2021/11/08 10:40:54;;;;;;;6.27;1.40;;;;;;;;;;4953214;28;20799;-72
2021/11/08 10:43:30;;;;;;;11.43;1.93;;;;;;;;;;4957058;28;20434;-73
2021/11/08 10:45:59;;;;;;;12.67;1.43;;;;;;;;;;4957962;28;20481;-72
2021/11/08 10:48:28;;;;;;;6.57;1.50;;;;;;;;;;4954610;28;20524;-72
2021/11/08 10:50:54;;;;;;;4.90;1.37;;;;;;;;;;4953109;28;20546;-73
2021/11/08 10:53:19;;;;;;;5.53;1.27;;;;;;;;;;4950932;28;20831;-73
2021/11/08 10:55:49;;;;;;;5.13;1.30;;;;;;;;;;4957040;28;20458;-72
2021/11/08 10:58:16;;;;;;;5.40;1.20;;;;;;;;;;4958390;28;20191;-73
2021/11/08 11:00:48;;;;;;;6.13;1.97;;;;;;;;;;4954765;28;20792;-72
2021/11/08 11:03:17;;;;;;;8.67;1.63;;;;;;;;;;4954104;28;20469;-72
2021/11/08 11:05:43;;;;;;;11.23;2.00;;;;;;;;;;4955426;28;20482;-72
2021/11/08 11:08:14;;;;;;;8.23;1.80;;;;;;;;;;4953213;28;20792;-72
2021/11/08 11:10:42;;;;;;;6.60;1.80;;;;;;;;;;4949525;28;20207;-73
2021/11/08 11:13:12;;;;;;;8.50;2.10;;;;;;;;;;4953871;28;20520;-74
2021/11/08 11:15:39;;;;;;;7.93;1.83;;;;;;;;;;4955038;28;20866;-73
2021/11/08 11:18:05;;;;;;;8.60;1.93;;;;;;;;;;4952972;28;20538;-72
2021/11/08 11:20:34;;;;;;;10.10;2.43;;;;;;;;;;4954224;28;20469;-73
2021/11/08 11:23:05;;;;;;;11.10;2.13;;;;;;;;;;4955707;28;20452;-72
2021/11/08 11:25:34;;;;;;;9.20;2.30;;;;;;;;;;4953221;28;20612;-72
2021/11/08 11:28:03;;;;;;;13.60;1.80;;;;;;;;;;4951082;28;20446;-72
2021/11/08 11:30:31;;;;;;;7.50;2.27;;;;;;;;;;4950977;28;20430;-72
2021/11/08 11:32:56;;;;;;;8.63;1.80;;;;;;;;;;4953236;28;20435;-72
2021/11/08 11:35:22;;;;;;;3.70;1.67;;;;;;;;;;4958623;28;20504;-72
2021/11/08 11:38:02;;;;;;;5.40;1.70;;;;;;;;;;4956663;28;20279;-72
2021/11/08 11:40:28;;;;;;;6.17;1.80;;;;;;;;;;4952762;28;20197;-72
2021/11/08 11:42:56;;;;;;;8.63;1.63;;;;;;;;;;4954747;28;20445;-73
2021/11/08 11:45:22;;;;;;;9.40;1.80;;;;;;;;;;4955859;28;20488;-72
2021/11/08 11:47:56;;;;;;;7.37;1.80;;;;;;;;;;4958270;28;20445;-72
2021/11/08 11:50:22;;;;;;;7.87;2.13;;;;;;;;;;4956502;28;20848;-72
2021/11/08 11:52:48;;;;;;;7.53;1.90;;;;;;;;;;4946685;28;20464;-71
2021/11/08 11:55:13;;;;;;;6.70;1.50;;;;;;;;;;4960988;28;21050;-72
2021/11/08 11:57:39;;;;;;;11.20;2.30;;;;;;;;;;4936590;28;20214;-72
2021/11/08 12:00:05;;;;;;;6.50;1.90;;;;;;;;;;4941845;28;20183;-72
2021/11/08 12:02:31;;;;;;;13.50;2.10;;;;;;;;;;4958946;28;20445;-73
2021/11/08 12:04:56;;;;;;;11.57;2.43;;;;;;;;;;4955809;28;20297;-72
2021/11/08 12:07:21;;;;;;;8.47;1.73;;;;;;;;;;4961651;28;20211;-72
2021/11/08 12:09:47;;;;;;;7.80;1.73;;;;;;;;;;4956372;28;20178;-72
2021/11/08 12:12:20;;;;;;;6.57;1.77;;;;;;;;;;4961192;28;20213;-73
2021/11/08 12:14:54;;;;;;;7.90;1.77;;;;;;;;;;4952970;28;20490;-73
2021/11/08 12:17:19;;;;;;;7.90;1.90;;;;;;;;;;4950687;28;20434;-73
2021/11/08 12:19:45;;;;;;;10.00;2.23;;;;;;;;;;4947575;28;20812;-72
2021/11/08 12:22:19;;;;;;;11.00;2.63;;;;;;;;;;4953912;28;20182;-71
2021/11/08 12:24:59;;;;;;;12.13;2.93;;;;;;;;;;4949844;28;20450;-72
2021/11/08 12:27:41;;;;;;;14.00;2.70;;;;;;;;;;4954308;28;20915;-73
2021/11/08 12:30:11;;;;;;;13.80;2.77;;;;;;;;;;4950495;28;20851;-72
2021/11/08 12:32:44;;;;;;;19.30;3.00;;;;;;;;;;4950845;28;20437;-72
2021/11/08 12:35:14;;;;;;;11.53;2.60;;;;;;;;;;4954706;28;20976;-72
2021/11/08 12:37:39;;;;;;;20.87;3.00;;;;;;;;;;4952560;28;20540;-72
2021/11/08 12:40:06;;;;;;;18.93;3.70;;;;;;;;;;4944890;28;20524;-72
2021/11/08 12:42:41;;;;;;;12.80;2.77;;;;;;;;;;4953062;28;20703;-72
2021/11/08 12:45:13;;;;;;;21.50;4.03;;;;;;;;;;4945479;28;20460;-73
2021/11/08 12:47:38;;;;;;;13.60;2.90;;;;;;;;;;4952126;28;20469;-72
2021/11/08 12:50:04;;;;;;;15.07;3.50;;;;;;;;;;4955712;28;20450;-72
2021/11/08 12:52:32;;;;;;;21.23;3.60;;;;;;;;;;4949156;28;20194;-72
2021/11/08 12:55:00;;;;;;;14.03;3.60;;;;;;;;;;4954149;28;20262;-72
2021/11/08 12:57:26;;;;;;;13.03;2.80;;;;;;;;;;4953407;28;20517;-71
2021/11/08 12:59:55;;;;;;;9.90;2.70;;;;;;;;;;4954107;28;20433;-72
2021/11/08 13:02:23;;;;;;;12.10;2.80;;;;;;;;;;4951695;28;20525;-71
2021/11/08 13:04:50;;;;;;;17.00;3.30;;;;;;;;;;4954744;28;20473;-72
2021/11/08 13:07:16;;;;;;;22.77;4.20;;;;;;;;;;4948425;28;21625;-72
2021/11/08 13:09:44;;;;;;;17.87;3.33;;;;;;;;;;4957289;28;20775;-72
2021/11/08 13:12:11;;;;;;;9.10;3.03;;;;;;;;;;4953273;28;20445;-72
2021/11/08 13:14:37;;;;;;;13.13;3.00;;;;;;;;;;4957429;28;20540;-72
2021/11/08 13:17:06;;;;;;;13.57;2.90;;;;;;;;;;4941054;28;20435;-71
2021/11/08 13:19:31;;;;;;;6.30;2.47;;;;;;;;;;4949823;28;21043;-72
2021/11/08 13:21:57;;;;;;;13.43;2.73;;;;;;;;;;4952485;28;20418;-71
2021/11/08 13:24:24;;;;;;;15.07;3.00;;;;;;;;;;4956435;28;20218;-71
2021/11/08 13:26:50;;;;;;;14.03;3.33;;;;;;;;;;4954995;28;20489;-72
2021/11/08 13:29:17;;;;;;;21.77;3.70;;;;;;;;;;4952053;28;20908;-72
2021/11/08 13:31:43;;;;;;;14.90;3.23;;;;;;;;;;4954629;28;20179;-72
2021/11/08 13:34:13;;;;;;;11.13;2.43;;;;;;;;;;4954435;28;20430;-72
2021/11/08 13:36:38;;;;;;;14.30;3.00;;;;;;;;;;4950629;28;20521;-72
2021/11/08 13:39:05;;;;;;;16.53;3.80;;;;;;;;;;4950949;28;20460;-72
2021/11/08 13:41:33;;;;;;;18.03;3.57;;;;;;;;;;4954059;28;20214;-72
2021/11/08 13:43:59;;;;;;;11.10;2.60;;;;;;;;;;4951496;28;20434;-72
2021/11/08 13:46:26;;;;;;;13.90;3.07;;;;;;;;;;4954619;28;21027;-72
2021/11/08 13:48:53;;;;;;;14.83;3.00;;;;;;;;;;4955005;28;20569;-72
2021/11/08 13:51:31;;;;;;;10.77;3.13;;;;;;;;;;4946030;28;20433;-73
2021/11/08 13:53:59;;;;;;;13.73;3.30;;;;;;;;;;4955449;28;20916;-72
2021/11/08 13:56:37;;;;;;;10.27;2.57;;;;;;;;;;4956803;28;20454;-72
2021/11/08 13:59:07;;;;;;;12.67;3.17;;;;;;;;;;4950611;28;20476;-72
2021/11/08 14:01:36;;;;;;;12.37;2.93;;;;;;;;;;4954425;28;20427;-73
2021/11/08 14:04:01;;;;;;;16.27;3.70;;;;;;;;;;4951075;28;20430;-73
2021/11/08 14:06:35;;;;;;;13.13;2.90;;;;;;;;;;4949071;28;20987;-73
2021/11/08 14:09:02;;;;;;;16.70;3.40;;;;;;;;;;4949827;28;20177;-73
2021/11/08 14:11:29;;;;;;;12.80;2.80;;;;;;;;;;4939621;28;20430;-72
2021/11/08 14:14:00;;;;;;;10.80;2.80;;;;;;;;;;4956374;28;20431;-72
2021/11/08 14:16:25;;;;;;;12.10;2.90;;;;;;;;;;4952110;28;20454;-72
2021/11/08 14:18:54;;;;;;;10.00;3.07;;;;;;;;;;4954723;28;20456;-72
2021/11/08 14:21:20;;;;;;;14.20;2.80;;;;;;;;;;4957390;28;20186;-72
2021/11/08 14:23:45;;;;;;;13.67;2.90;;;;;;;;;;4951158;28;20944;-72
2021/11/08 14:26:21;;;;;;;6.03;1.90;;;;;;;;;;4958849;28;20474;-72
2021/11/08 14:28:47;;;;;;;8.60;2.20;;;;;;;;;;4953201;28;20236;-72
2021/11/08 14:31:20;;;;;;;7.37;2.30;;;;;;;;;;4956074;28;20951;-72
2021/11/08 14:33:45;;;;;;;9.20;2.40;;;;;;;;;;4958459;28;20438;-72
2021/11/08 14:36:19;;;;;;;8.70;2.67;;;;;;;;;;4960194;28;20448;-72
2021/11/08 14:38:52;;;;;;;10.57;2.43;;;;;;;;;;4954590;28;20197;-72
2021/11/08 14:41:18;;;;;;;7.33;2.10;;;;;;;;;;4955876;28;20946;-72
2021/11/08 14:43:44;;;;;;;11.27;2.83;;;;;;;;;;4958468;28;20422;-72
2021/11/08 14:46:12;;;;;;;9.73;2.73;;;;;;;;;;4958948;28;20209;-72
2021/11/08 14:48:40;;;;;;;14.73;2.50;;;;;;;;;;4958613;28;20429;-72
2021/11/08 14:51:18;;;;;;;8.40;2.23;;;;;;;;;;4959576;28;20454;-71
2021/11/08 14:53:51;;;;;;;9.03;2.50;;;;;;;;;;4960177;28;20498;-72
2021/11/08 14:56:21;;;;;;;13.63;2.80;;;;;;;;;;4952434;28;20819;-72
2021/11/08 14:58:54;;;;;;;13.67;3.13;;;;;;;;;;4956567;28;20510;-73
2021/11/08 15:01:20;;;;;;;10.23;2.50;;;;;;;;;;4953294;28;20953;-72
2021/11/08 15:03:45;;;;;;;12.10;2.90;;;;;;;;;;4950887;28;20431;-72
2021/11/08 15:06:11;;;;;;;14.37;2.90;;;;;;;;;;4949679;28;20579;-71
2021/11/08 15:08:37;;;;;;;12.17;2.90;;;;;;;;;;4959044;28;20193;-71
2021/11/08 15:11:02;;;;;;;14.23;3.03;;;;;;;;;;4952026;28;20438;-71
2021/11/08 15:13:27;;;;;;;11.03;2.80;;;;;;;;;;4951420;28;20230;-72
2021/11/08 15:15:53;;;;;;;13.33;3.10;;;;;;;;;;4955112;28;20233;-72
2021/11/08 15:18:23;;;;;;;15.70;2.73;;;;;;;;;;4952622;28;20183;-71
2021/11/08 15:20:51;;;;;;;11.40;2.60;;;;;;;;;;4954848;28;20518;-71
2021/11/08 15:23:21;;;;;;;10.87;2.40;;;;;;;;;;4955688;28;20816;-71
2021/11/08 15:25:51;;;;;;;20.07;4.30;;;;;;;;;;4955021;28;20597;-72
2021/11/08 15:28:21;;;;;;;11.33;3.00;;;;;;;;;;4954539;28;20757;-72
2021/11/08 15:30:54;;;;;;;14.70;3.13;;;;;;;;;;4950949;28;20426;-73
2021/11/08 15:33:20;;;;;;;12.43;2.13;;;;;;;;;;4950432;28;20434;-72
2021/11/08 15:36:03;;;;;;;16.17;3.10;;;;;;;;;;4953524;28;20809;-73
2021/11/08 15:38:31;;;;;;;11.90;3.00;;;;;;;;;;4953648;28;20516;-71
2021/11/08 15:40:56;;;;;;;11.30;2.43;;;;;;;;;;4954607;28;20465;-72
2021/11/08 15:43:21;;;;;;;22.40;4.20;;;;;;;;;;4954349;28;20522;-71
2021/11/08 15:45:48;;;;;;;13.37;2.97;;;;;;;;;;4933617;28;20298;-71
2021/11/08 15:48:14;;;;;;;8.60;3.40;;;;;;;;;;4951329;28;20217;-71
2021/11/08 15:50:40;;;;;;;11.30;3.23;;;;;;;;;;4954324;28;20496;-72
2021/11/08 15:53:05;;;;;;;12.50;2.97;;;;;;;;;;4953432;28;20433;-71
2021/11/08 15:55:30;;;;;;;9.13;2.90;;;;;;;;;;4952689;28;20226;-71
2021/11/08 15:57:56;;;;;;;15.53;3.43;;;;;;;;;;4954806;28;20258;-72
2021/11/08 16:00:21;;;;;;;12.33;3.40;;;;;;;;;;4956016;28;20902;-72
2021/11/08 16:02:49;;;;;;;12.23;2.63;;;;;;;;;;4956568;28;20182;-73
2021/11/08 16:05:14;;;;;;;11.27;3.40;;;;;;;;;;4947445;28;20235;-72
2021/11/08 16:07:39;;;;;;;11.93;2.90;;;;;;;;;;4953134;28;20570;-73
2021/11/08 16:10:05;;;;;;;22.57;7.20;;;;;;;;;;4949979;28;21912;-72
2021/11/08 16:12:31;;;;;;;16.67;5.13;;;;;;;;;;4954041;28;21607;-72
2021/11/08 16:14:56;;;;;;;14.17;3.40;;;;;;;;;;4953519;28;20461;-73
2021/11/08 16:17:21;;;;;;;11.17;3.20;;;;;;;;;;4954839;28;20179;-72
2021/11/08 16:19:47;;;;;;;11.37;2.93;;;;;;;;;;4951385;28;20799;-72